sensor_id;sensor_type;location;lat;lon;timestamp;P1;durP1;ratioP1;P2;durP2;ratioP2
59854;SDS011;45732;52.850;6.896;2023-04-06T00:01:31;10.07;;;7.05;;
59854;SDS011;45732;52.850;6.896;2023-04-06T00:03:57;9.18;;;6.90;;
59854;SDS011;45732;52.850;6.896;2023-04-06T00:06:23;9.73;;;6.55;;
59854;SDS011;45732;52.850;6.896;2023-04-06T00:08:48;11.02;;;7.20;;
59854;SDS011;45732;52.850;6.896;2023-04-06T00:11:14;10.77;;;6.97;;
59854;SDS011;45732;52.850;6.896;2023-04-06T00:13:41;11.05;;;7.72;;
59854;SDS011;45732;52.850;6.896;2023-04-06T00:16:07;9.98;;;7.40;;
59854;SDS011;45732;52.850;6.896;2023-04-06T00:18:33;10.73;;;7.38;;
59854;SDS011;45732;52.850;6.896;2023-04-06T00:20:59;11.65;;;7.53;;
59854;SDS011;45732;52.850;6.896;2023-04-06T00:23:25;10.43;;;7.65;;
59854;SDS011;45732;52.850;6.896;2023-04-06T00:25:51;10.80;;;7.88;;
59854;SDS011;45732;52.850;6.896;2023-04-06T00:28:16;10.80;;;7.47;;
59854;SDS011;45732;52.850;6.896;2023-04-06T00:30:42;10.82;;;7.10;;
59854;SDS011;45732;52.850;6.896;2023-04-06T00:33:08;10.35;;;7.65;;
59854;SDS011;45732;52.850;6.896;2023-04-06T00:35:33;9.60;;;6.78;;
59854;SDS011;45732;52.850;6.896;2023-04-06T00:37:59;12.32;;;7.10;;
59854;SDS011;45732;52.850;6.896;2023-04-06T00:40:25;9.60;;;7.15;;
59854;SDS011;45732;52.850;6.896;2023-04-06T00:42:53;11.90;;;7.50;;
59854;SDS011;45732;52.850;6.896;2023-04-06T00:45:20;12.60;;;7.78;;
59854;SDS011;45732;52.850;6.896;2023-04-06T00:47:45;9.32;;;6.80;;
59854;SDS011;45732;52.850;6.896;2023-04-06T00:50:11;10.65;;;7.57;;
59854;SDS011;45732;52.850;6.896;2023-04-06T00:52:37;9.52;;;7.13;;
59854;SDS011;45732;52.850;6.896;2023-04-06T00:55:03;10.27;;;6.80;;
59854;SDS011;45732;52.850;6.896;2023-04-06T00:57:29;11.43;;;7.75;;
59854;SDS011;45732;52.850;6.896;2023-04-06T00:59:56;11.60;;;7.05;;
59854;SDS011;45732;52.850;6.896;2023-04-06T01:02:21;10.60;;;6.85;;
59854;SDS011;45732;52.850;6.896;2023-04-06T01:04:48;10.70;;;7.50;;
59854;SDS011;45732;52.850;6.896;2023-04-06T01:07:14;10.23;;;7.10;;
59854;SDS011;45732;52.850;6.896;2023-04-06T01:09:39;11.05;;;7.35;;
59854;SDS011;45732;52.850;6.896;2023-04-06T01:12:07;9.98;;;7.43;;
59854;SDS011;45732;52.850;6.896;2023-04-06T01:14:32;9.45;;;7.28;;
59854;SDS011;45732;52.850;6.896;2023-04-06T01:16:59;10.05;;;7.63;;
59854;SDS011;45732;52.850;6.896;2023-04-06T01:19:25;9.90;;;7.35;;
59854;SDS011;45732;52.850;6.896;2023-04-06T01:21:51;10.00;;;7.70;;
59854;SDS011;45732;52.850;6.896;2023-04-06T01:24:18;12.55;;;7.70;;
59854;SDS011;45732;52.850;6.896;2023-04-06T01:26:44;11.30;;;7.63;;
59854;SDS011;45732;52.850;6.896;2023-04-06T01:29:11;10.88;;;7.10;;
59854;SDS011;45732;52.850;6.896;2023-04-06T01:31:37;12.23;;;7.40;;
59854;SDS011;45732;52.850;6.896;2023-04-06T01:34:04;10.88;;;7.50;;
59854;SDS011;45732;52.850;6.896;2023-04-06T01:36:30;12.40;;;7.38;;
59854;SDS011;45732;52.850;6.896;2023-04-06T01:38:56;9.35;;;6.97;;
59854;SDS011;45732;52.850;6.896;2023-04-06T01:41:21;11.02;;;7.28;;
59854;SDS011;45732;52.850;6.896;2023-04-06T01:43:47;10.80;;;7.03;;
59854;SDS011;45732;52.850;6.896;2023-04-06T01:46:14;10.75;;;7.32;;
59854;SDS011;45732;52.850;6.896;2023-04-06T01:48:40;9.57;;;7.47;;
59854;SDS011;45732;52.850;6.896;2023-04-06T01:51:06;10.18;;;7.40;;
59854;SDS011;45732;52.850;6.896;2023-04-06T01:53:32;11.32;;;7.75;;
59854;SDS011;45732;52.850;6.896;2023-04-06T01:55:58;11.15;;;7.28;;
59854;SDS011;45732;52.850;6.896;2023-04-06T01:58:23;11.30;;;7.13;;
59854;SDS011;45732;52.850;6.896;2023-04-06T02:00:50;11.15;;;7.43;;
59854;SDS011;45732;52.850;6.896;2023-04-06T02:03:16;10.82;;;7.53;;
59854;SDS011;45732;52.850;6.896;2023-04-06T02:05:41;10.43;;;7.40;;
59854;SDS011;45732;52.850;6.896;2023-04-06T02:08:07;11.40;;;7.40;;
59854;SDS011;45732;52.850;6.896;2023-04-06T02:10:33;11.18;;;7.85;;
59854;SDS011;45732;52.850;6.896;2023-04-06T02:12:59;10.82;;;7.80;;
59854;SDS011;45732;52.850;6.896;2023-04-06T02:15:25;11.55;;;7.78;;
59854;SDS011;45732;52.850;6.896;2023-04-06T02:17:51;9.85;;;7.45;;
59854;SDS011;45732;52.850;6.896;2023-04-06T02:20:18;11.70;;;7.95;;
59854;SDS011;45732;52.850;6.896;2023-04-06T02:22:44;10.90;;;7.32;;
59854;SDS011;45732;52.850;6.896;2023-04-06T02:25:09;9.43;;;6.72;;
59854;SDS011;45732;52.850;6.896;2023-04-06T02:27:36;9.98;;;6.88;;
59854;SDS011;45732;52.850;6.896;2023-04-06T02:30:02;11.55;;;7.28;;
59854;SDS011;45732;52.850;6.896;2023-04-06T02:32:28;12.90;;;7.15;;
59854;SDS011;45732;52.850;6.896;2023-04-06T02:34:54;12.90;;;7.60;;
59854;SDS011;45732;52.850;6.896;2023-04-06T02:37:20;10.27;;;7.30;;
59854;SDS011;45732;52.850;6.896;2023-04-06T02:39:46;12.05;;;7.60;;
59854;SDS011;45732;52.850;6.896;2023-04-06T02:42:12;11.00;;;7.60;;
59854;SDS011;45732;52.850;6.896;2023-04-06T02:44:40;10.50;;;7.22;;
59854;SDS011;45732;52.850;6.896;2023-04-06T02:47:09;12.23;;;8.27;;
59854;SDS011;45732;52.850;6.896;2023-04-06T02:49:35;11.90;;;8.70;;
59854;SDS011;45732;52.850;6.896;2023-04-06T02:52:01;11.75;;;8.50;;
59854;SDS011;45732;52.850;6.896;2023-04-06T02:54:27;15.75;;;7.90;;
59854;SDS011;45732;52.850;6.896;2023-04-06T02:56:53;15.35;;;8.43;;
59854;SDS011;45732;52.850;6.896;2023-04-06T02:59:19;13.18;;;9.00;;
59854;SDS011;45732;52.850;6.896;2023-04-06T03:01:44;13.30;;;8.70;;
59854;SDS011;45732;52.850;6.896;2023-04-06T03:04:10;12.65;;;9.38;;
59854;SDS011;45732;52.850;6.896;2023-04-06T03:06:36;12.70;;;9.40;;
59854;SDS011;45732;52.850;6.896;2023-04-06T03:09:02;15.45;;;9.48;;
59854;SDS011;45732;52.850;6.896;2023-04-06T03:11:28;11.95;;;9.27;;
59854;SDS011;45732;52.850;6.896;2023-04-06T03:13:53;13.10;;;9.43;;
59854;SDS011;45732;52.850;6.896;2023-04-06T03:16:19;13.27;;;9.45;;
59854;SDS011;45732;52.850;6.896;2023-04-06T03:18:45;15.88;;;9.40;;
59854;SDS011;45732;52.850;6.896;2023-04-06T03:21:12;12.95;;;9.63;;
59854;SDS011;45732;52.850;6.896;2023-04-06T03:23:40;11.85;;;9.63;;
59854;SDS011;45732;52.850;6.896;2023-04-06T03:26:06;13.23;;;9.55;;
59854;SDS011;45732;52.850;6.896;2023-04-06T03:28:32;12.65;;;9.50;;
59854;SDS011;45732;52.850;6.896;2023-04-06T03:30:58;12.40;;;10.18;;
59854;SDS011;45732;52.850;6.896;2023-04-06T03:33:23;13.65;;;10.00;;
59854;SDS011;45732;52.850;6.896;2023-04-06T03:35:52;12.98;;;10.63;;
59854;SDS011;45732;52.850;6.896;2023-04-06T03:38:18;19.88;;;17.88;;
59854;SDS011;45732;52.850;6.896;2023-04-06T03:40:44;14.70;;;10.45;;
59854;SDS011;45732;52.850;6.896;2023-04-06T03:43:10;12.82;;;10.52;;
59854;SDS011;45732;52.850;6.896;2023-04-06T03:45:36;33.15;;;30.38;;
59854;SDS011;45732;52.850;6.896;2023-04-06T03:48:02;14.55;;;10.75;;
59854;SDS011;45732;52.850;6.896;2023-04-06T03:50:28;12.60;;;9.77;;
59854;SDS011;45732;52.850;6.896;2023-04-06T03:52:53;11.88;;;9.65;;
59854;SDS011;45732;52.850;6.896;2023-04-06T03:55:19;12.40;;;9.48;;
59854;SDS011;45732;52.850;6.896;2023-04-06T03:57:45;12.52;;;9.23;;
59854;SDS011;45732;52.850;6.896;2023-04-06T04:00:11;12.50;;;9.15;;
59854;SDS011;45732;52.850;6.896;2023-04-06T04:02:37;13.45;;;9.25;;
59854;SDS011;45732;52.850;6.896;2023-04-06T04:05:03;12.60;;;9.88;;
59854;SDS011;45732;52.850;6.896;2023-04-06T04:07:29;12.05;;;9.05;;
59854;SDS011;45732;52.850;6.896;2023-04-06T04:09:55;13.77;;;9.88;;
59854;SDS011;45732;52.850;6.896;2023-04-06T04:12:21;11.68;;;8.95;;
59854;SDS011;45732;52.850;6.896;2023-04-06T04:14:47;13.02;;;9.20;;
59854;SDS011;45732;52.850;6.896;2023-04-06T04:17:12;13.15;;;8.85;;
59854;SDS011;45732;52.850;6.896;2023-04-06T04:19:38;13.18;;;9.40;;
59854;SDS011;45732;52.850;6.896;2023-04-06T04:22:04;13.07;;;9.98;;
59854;SDS011;45732;52.850;6.896;2023-04-06T04:24:30;14.43;;;9.80;;
59854;SDS011;45732;52.850;6.896;2023-04-06T04:26:56;13.70;;;9.27;;
59854;SDS011;45732;52.850;6.896;2023-04-06T04:29:22;11.98;;;9.00;;
59854;SDS011;45732;52.850;6.896;2023-04-06T04:31:48;14.15;;;8.98;;
59854;SDS011;45732;52.850;6.896;2023-04-06T04:34:14;14.20;;;8.55;;
59854;SDS011;45732;52.850;6.896;2023-04-06T04:36:40;12.45;;;9.05;;
59854;SDS011;45732;52.850;6.896;2023-04-06T04:39:07;13.73;;;8.57;;
59854;SDS011;45732;52.850;6.896;2023-04-06T04:41:33;14.57;;;9.65;;
59854;SDS011;45732;52.850;6.896;2023-04-06T04:43:59;14.43;;;9.13;;
59854;SDS011;45732;52.850;6.896;2023-04-06T04:46:25;11.73;;;9.30;;
59854;SDS011;45732;52.850;6.896;2023-04-06T04:48:51;12.68;;;9.68;;
59854;SDS011;45732;52.850;6.896;2023-04-06T04:51:16;13.82;;;9.23;;
59854;SDS011;45732;52.850;6.896;2023-04-06T04:53:42;13.77;;;9.50;;
59854;SDS011;45732;52.850;6.896;2023-04-06T04:56:08;13.20;;;9.27;;
59854;SDS011;45732;52.850;6.896;2023-04-06T04:58:33;12.25;;;9.30;;
59854;SDS011;45732;52.850;6.896;2023-04-06T05:01:00;11.43;;;9.23;;
59854;SDS011;45732;52.850;6.896;2023-04-06T05:03:26;14.30;;;9.40;;
59854;SDS011;45732;52.850;6.896;2023-04-06T05:05:52;11.57;;;8.95;;
59854;SDS011;45732;52.850;6.896;2023-04-06T05:08:18;14.55;;;9.70;;
59854;SDS011;45732;52.850;6.896;2023-04-06T05:10:44;13.20;;;9.23;;
59854;SDS011;45732;52.850;6.896;2023-04-06T05:13:10;13.25;;;9.90;;
59854;SDS011;45732;52.850;6.896;2023-04-06T05:15:36;14.05;;;9.02;;
59854;SDS011;45732;52.850;6.896;2023-04-06T05:18:05;16.27;;;10.32;;
59854;SDS011;45732;52.850;6.896;2023-04-06T05:20:34;13.88;;;10.75;;
59854;SDS011;45732;52.850;6.896;2023-04-06T05:23:00;13.13;;;10.60;;
59854;SDS011;45732;52.850;6.896;2023-04-06T05:25:26;13.10;;;10.10;;
59854;SDS011;45732;52.850;6.896;2023-04-06T05:27:52;14.43;;;10.23;;
59854;SDS011;45732;52.850;6.896;2023-04-06T05:30:18;13.48;;;9.02;;
59854;SDS011;45732;52.850;6.896;2023-04-06T05:32:44;12.95;;;10.07;;
59854;SDS011;45732;52.850;6.896;2023-04-06T05:35:10;12.77;;;9.77;;
59854;SDS011;45732;52.850;6.896;2023-04-06T05:37:37;14.10;;;9.15;;
59854;SDS011;45732;52.850;6.896;2023-04-06T05:40:03;14.05;;;9.73;;
59854;SDS011;45732;52.850;6.896;2023-04-06T05:42:39;11.93;;;9.45;;
59854;SDS011;45732;52.850;6.896;2023-04-06T05:45:09;12.98;;;9.13;;
59854;SDS011;45732;52.850;6.896;2023-04-06T05:47:36;14.30;;;9.32;;
59854;SDS011;45732;52.850;6.896;2023-04-06T05:50:02;13.88;;;9.20;;
59854;SDS011;45732;52.850;6.896;2023-04-06T05:52:28;12.02;;;9.23;;
59854;SDS011;45732;52.850;6.896;2023-04-06T05:54:53;16.70;;;9.38;;
59854;SDS011;45732;52.850;6.896;2023-04-06T05:57:19;13.88;;;9.30;;
59854;SDS011;45732;52.850;6.896;2023-04-06T05:59:45;13.20;;;9.27;;
59854;SDS011;45732;52.850;6.896;2023-04-06T06:02:11;12.98;;;9.05;;
59854;SDS011;45732;52.850;6.896;2023-04-06T06:04:37;13.07;;;9.02;;
59854;SDS011;45732;52.850;6.896;2023-04-06T06:07:02;11.70;;;9.70;;
59854;SDS011;45732;52.850;6.896;2023-04-06T06:09:28;14.25;;;9.48;;
59854;SDS011;45732;52.850;6.896;2023-04-06T06:11:54;14.25;;;9.43;;
59854;SDS011;45732;52.850;6.896;2023-04-06T06:14:20;13.35;;;9.45;;
59854;SDS011;45732;52.850;6.896;2023-04-06T06:16:47;13.15;;;9.85;;
59854;SDS011;45732;52.850;6.896;2023-04-06T06:19:13;12.93;;;9.50;;
59854;SDS011;45732;52.850;6.896;2023-04-06T06:21:39;12.98;;;9.98;;
59854;SDS011;45732;52.850;6.896;2023-04-06T06:24:05;13.18;;;9.75;;
59854;SDS011;45732;52.850;6.896;2023-04-06T06:26:31;13.30;;;9.77;;
59854;SDS011;45732;52.850;6.896;2023-04-06T06:28:57;12.68;;;9.05;;
59854;SDS011;45732;52.850;6.896;2023-04-06T06:31:23;13.20;;;10.18;;
59854;SDS011;45732;52.850;6.896;2023-04-06T06:33:49;14.38;;;10.38;;
59854;SDS011;45732;52.850;6.896;2023-04-06T06:36:19;12.88;;;9.55;;
59854;SDS011;45732;52.850;6.896;2023-04-06T06:38:45;14.02;;;10.20;;
59854;SDS011;45732;52.850;6.896;2023-04-06T06:41:10;16.98;;;10.70;;
59854;SDS011;45732;52.850;6.896;2023-04-06T06:43:36;14.65;;;10.13;;
59854;SDS011;45732;52.850;6.896;2023-04-06T06:46:02;14.20;;;9.48;;
59854;SDS011;45732;52.850;6.896;2023-04-06T06:48:28;12.43;;;10.23;;
59854;SDS011;45732;52.850;6.896;2023-04-06T06:50:54;16.48;;;10.68;;
59854;SDS011;45732;52.850;6.896;2023-04-06T06:53:20;19.98;;;11.13;;
59854;SDS011;45732;52.850;6.896;2023-04-06T06:55:46;13.63;;;10.20;;
59854;SDS011;45732;52.850;6.896;2023-04-06T06:58:13;14.05;;;10.63;;
59854;SDS011;45732;52.850;6.896;2023-04-06T07:00:40;14.48;;;10.85;;
59854;SDS011;45732;52.850;6.896;2023-04-06T07:03:05;16.90;;;11.63;;
59854;SDS011;45732;52.850;6.896;2023-04-06T07:05:31;16.20;;;11.80;;
59854;SDS011;45732;52.850;6.896;2023-04-06T07:07:57;15.05;;;10.95;;
59854;SDS011;45732;52.850;6.896;2023-04-06T07:10:23;14.63;;;11.32;;
59854;SDS011;45732;52.850;6.896;2023-04-06T07:12:49;18.23;;;11.23;;
59854;SDS011;45732;52.850;6.896;2023-04-06T07:15:15;13.13;;;10.98;;
59854;SDS011;45732;52.850;6.896;2023-04-06T07:17:42;14.35;;;10.88;;
59854;SDS011;45732;52.850;6.896;2023-04-06T07:20:10;17.42;;;11.95;;
59854;SDS011;45732;52.850;6.896;2023-04-06T07:22:37;14.10;;;10.95;;
59854;SDS011;45732;52.850;6.896;2023-04-06T07:25:03;16.15;;;11.55;;
59854;SDS011;45732;52.850;6.896;2023-04-06T07:27:30;15.30;;;11.05;;
59854;SDS011;45732;52.850;6.896;2023-04-06T07:29:55;15.88;;;11.40;;
59854;SDS011;45732;52.850;6.896;2023-04-06T07:32:21;14.88;;;12.10;;
59854;SDS011;45732;52.850;6.896;2023-04-06T07:34:47;14.50;;;11.45;;
59854;SDS011;45732;52.850;6.896;2023-04-06T07:37:12;16.50;;;12.02;;
59854;SDS011;45732;52.850;6.896;2023-04-06T07:39:38;15.63;;;11.82;;
59854;SDS011;45732;52.850;6.896;2023-04-06T07:42:05;15.00;;;11.25;;
59854;SDS011;45732;52.850;6.896;2023-04-06T07:44:31;15.32;;;11.43;;
59854;SDS011;45732;52.850;6.896;2023-04-06T07:46:57;16.95;;;12.10;;
59854;SDS011;45732;52.850;6.896;2023-04-06T07:49:22;17.15;;;12.57;;
59854;SDS011;45732;52.850;6.896;2023-04-06T07:51:48;17.45;;;12.45;;
59854;SDS011;45732;52.850;6.896;2023-04-06T07:54:14;14.68;;;11.80;;
59854;SDS011;45732;52.850;6.896;2023-04-06T07:56:40;17.15;;;12.63;;
59854;SDS011;45732;52.850;6.896;2023-04-06T07:59:06;22.80;;;12.25;;
59854;SDS011;45732;52.850;6.896;2023-04-06T08:01:31;13.88;;;11.52;;
59854;SDS011;45732;52.850;6.896;2023-04-06T08:03:57;15.73;;;11.70;;
59854;SDS011;45732;52.850;6.896;2023-04-06T08:06:24;16.00;;;12.65;;
59854;SDS011;45732;52.850;6.896;2023-04-06T08:08:50;15.65;;;12.52;;
59854;SDS011;45732;52.850;6.896;2023-04-06T08:11:15;16.45;;;12.80;;
59854;SDS011;45732;52.850;6.896;2023-04-06T08:13:41;15.65;;;12.65;;
59854;SDS011;45732;52.850;6.896;2023-04-06T08:16:07;16.52;;;12.02;;
59854;SDS011;45732;52.850;6.896;2023-04-06T08:18:32;15.05;;;12.63;;
59854;SDS011;45732;52.850;6.896;2023-04-06T08:20:58;16.52;;;12.15;;
59854;SDS011;45732;52.850;6.896;2023-04-06T08:23:24;16.30;;;12.40;;
59854;SDS011;45732;52.850;6.896;2023-04-06T08:25:50;15.75;;;11.68;;
59854;SDS011;45732;52.850;6.896;2023-04-06T08:28:18;16.27;;;11.82;;
59854;SDS011;45732;52.850;6.896;2023-04-06T08:30:44;14.32;;;11.80;;
59854;SDS011;45732;52.850;6.896;2023-04-06T08:33:10;15.05;;;12.07;;
59854;SDS011;45732;52.850;6.896;2023-04-06T08:35:37;16.40;;;11.75;;
59854;SDS011;45732;52.850;6.896;2023-04-06T08:38:02;18.05;;;12.82;;
59854;SDS011;45732;52.850;6.896;2023-04-06T08:40:28;16.55;;;12.05;;
59854;SDS011;45732;52.850;6.896;2023-04-06T08:42:55;16.58;;;12.20;;
59854;SDS011;45732;52.850;6.896;2023-04-06T08:45:24;16.40;;;11.43;;
59854;SDS011;45732;52.850;6.896;2023-04-06T08:47:51;14.93;;;11.43;;
59854;SDS011;45732;52.850;6.896;2023-04-06T08:50:17;15.63;;;11.18;;
59854;SDS011;45732;52.850;6.896;2023-04-06T08:52:45;15.88;;;11.82;;
59854;SDS011;45732;52.850;6.896;2023-04-06T08:55:12;17.20;;;11.68;;
59854;SDS011;45732;52.850;6.896;2023-04-06T08:57:38;16.13;;;11.48;;
59854;SDS011;45732;52.850;6.896;2023-04-06T09:00:06;15.48;;;11.50;;
59854;SDS011;45732;52.850;6.896;2023-04-06T09:02:36;17.05;;;12.55;;
59854;SDS011;45732;52.850;6.896;2023-04-06T09:05:07;16.30;;;12.38;;
59854;SDS011;45732;52.850;6.896;2023-04-06T09:07:35;16.58;;;11.38;;
59854;SDS011;45732;52.850;6.896;2023-04-06T09:10:02;18.35;;;11.85;;
59854;SDS011;45732;52.850;6.896;2023-04-06T09:12:30;15.50;;;10.70;;
59854;SDS011;45732;52.850;6.896;2023-04-06T09:14:57;14.05;;;11.02;;
59854;SDS011;45732;52.850;6.896;2023-04-06T09:17:24;17.10;;;11.55;;
59854;SDS011;45732;52.850;6.896;2023-04-06T09:19:55;17.45;;;11.85;;
59854;SDS011;45732;52.850;6.896;2023-04-06T09:22:21;18.45;;;11.93;;
59854;SDS011;45732;52.850;6.896;2023-04-06T09:24:50;16.25;;;13.02;;
59854;SDS011;45732;52.850;6.896;2023-04-06T09:27:17;15.38;;;11.68;;
59854;SDS011;45732;52.850;6.896;2023-04-06T09:30:02;15.45;;;12.05;;
59854;SDS011;45732;52.850;6.896;2023-04-06T09:32:32;16.95;;;12.18;;
59854;SDS011;45732;52.850;6.896;2023-04-06T09:35:08;18.00;;;12.07;;
59854;SDS011;45732;52.850;6.896;2023-04-06T09:37:34;15.63;;;11.73;;
59854;SDS011;45732;52.850;6.896;2023-04-06T09:40:06;16.58;;;11.30;;
59854;SDS011;45732;52.850;6.896;2023-04-06T09:42:33;19.35;;;11.93;;
59854;SDS011;45732;52.850;6.896;2023-04-06T09:45:02;14.35;;;11.57;;
59854;SDS011;45732;52.850;6.896;2023-04-06T09:47:32;19.65;;;11.75;;
59854;SDS011;45732;52.850;6.896;2023-04-06T09:50:00;14.90;;;11.53;;
59854;SDS011;45732;52.850;6.896;2023-04-06T09:52:32;19.50;;;14.60;;
59854;SDS011;45732;52.850;6.896;2023-04-06T09:55:03;18.83;;;13.52;;
59854;SDS011;45732;52.850;6.896;2023-04-06T09:57:49;20.58;;;13.30;;
59854;SDS011;45732;52.850;6.896;2023-04-06T10:00:21;18.63;;;13.73;;
59854;SDS011;45732;52.850;6.896;2023-04-06T10:05:50;20.65;;;14.65;;
59854;SDS011;45732;52.850;6.896;2023-04-06T10:08:20;19.75;;;13.93;;
59854;SDS011;45732;52.850;6.896;2023-04-06T10:10:49;20.33;;;14.50;;
59854;SDS011;45732;52.850;6.896;2023-04-06T10:13:16;18.75;;;14.93;;
59854;SDS011;45732;52.850;6.896;2023-04-06T10:15:43;19.65;;;14.93;;
59854;SDS011;45732;52.850;6.896;2023-04-06T10:18:09;20.52;;;15.10;;
59854;SDS011;45732;52.850;6.896;2023-04-06T10:20:38;25.60;;;15.63;;
59854;SDS011;45732;52.850;6.896;2023-04-06T10:23:22;20.02;;;15.20;;
59854;SDS011;45732;52.850;6.896;2023-04-06T10:25:55;20.50;;;15.60;;
59854;SDS011;45732;52.850;6.896;2023-04-06T10:28:22;21.02;;;16.05;;
59854;SDS011;45732;52.850;6.896;2023-04-06T10:30:49;22.92;;;15.32;;
59854;SDS011;45732;52.850;6.896;2023-04-06T10:33:21;19.63;;;15.80;;
59854;SDS011;45732;52.850;6.896;2023-04-06T10:35:47;22.70;;;17.17;;
59854;SDS011;45732;52.850;6.896;2023-04-06T10:38:12;27.48;;;17.48;;
59854;SDS011;45732;52.850;6.896;2023-04-06T10:40:40;21.90;;;17.48;;
59854;SDS011;45732;52.850;6.896;2023-04-06T10:45:39;21.17;;;16.70;;
59854;SDS011;45732;52.850;6.896;2023-04-06T10:48:14;25.38;;;17.27;;
59854;SDS011;45732;52.850;6.896;2023-04-06T10:50:43;24.70;;;18.05;;
59854;SDS011;45732;52.850;6.896;2023-04-06T10:53:10;23.90;;;18.23;;
59854;SDS011;45732;52.850;6.896;2023-04-06T10:55:37;25.30;;;18.23;;
59854;SDS011;45732;52.850;6.896;2023-04-06T10:58:08;22.02;;;17.58;;
59854;SDS011;45732;52.850;6.896;2023-04-06T11:00:34;22.75;;;18.30;;
59854;SDS011;45732;52.850;6.896;2023-04-06T11:03:01;23.92;;;18.27;;
59854;SDS011;45732;52.850;6.896;2023-04-06T11:05:27;23.23;;;18.13;;
59854;SDS011;45732;52.850;6.896;2023-04-06T11:07:55;26.27;;;19.38;;
59854;SDS011;45732;52.850;6.896;2023-04-06T11:10:21;26.05;;;19.90;;
59854;SDS011;45732;52.850;6.896;2023-04-06T11:12:52;27.55;;;19.05;;
59854;SDS011;45732;52.850;6.896;2023-04-06T11:15:19;24.23;;;19.13;;
59854;SDS011;45732;52.850;6.896;2023-04-06T11:17:45;25.90;;;20.67;;
59854;SDS011;45732;52.850;6.896;2023-04-06T11:20:11;26.17;;;20.55;;
59854;SDS011;45732;52.850;6.896;2023-04-06T11:22:50;27.13;;;21.10;;
59854;SDS011;45732;52.850;6.896;2023-04-06T11:25:17;24.55;;;18.73;;
59854;SDS011;45732;52.850;6.896;2023-04-06T11:27:43;28.20;;;20.77;;
59854;SDS011;45732;52.850;6.896;2023-04-06T11:30:11;24.52;;;20.30;;
59854;SDS011;45732;52.850;6.896;2023-04-06T11:32:41;24.25;;;18.90;;
59854;SDS011;45732;52.850;6.896;2023-04-06T11:35:24;24.95;;;20.20;;
59854;SDS011;45732;52.850;6.896;2023-04-06T11:37:50;25.70;;;21.13;;
59854;SDS011;45732;52.850;6.896;2023-04-06T11:40:20;25.50;;;20.52;;
59854;SDS011;45732;52.850;6.896;2023-04-06T11:42:53;25.73;;;20.15;;
59854;SDS011;45732;52.850;6.896;2023-04-06T11:45:20;25.02;;;20.77;;
59854;SDS011;45732;52.850;6.896;2023-04-06T11:47:54;25.45;;;20.52;;
59854;SDS011;45732;52.850;6.896;2023-04-06T11:50:24;26.55;;;20.38;;
59854;SDS011;45732;52.850;6.896;2023-04-06T11:53:00;28.55;;;20.58;;
59854;SDS011;45732;52.850;6.896;2023-04-06T11:55:27;28.25;;;21.60;;
59854;SDS011;45732;52.850;6.896;2023-04-06T11:57:53;24.23;;;21.10;;
59854;SDS011;45732;52.850;6.896;2023-04-06T12:00:20;25.88;;;19.92;;
59854;SDS011;45732;52.850;6.896;2023-04-06T12:02:46;25.15;;;20.25;;
59854;SDS011;45732;52.850;6.896;2023-04-06T12:05:13;28.58;;;20.90;;
59854;SDS011;45732;52.850;6.896;2023-04-06T12:07:39;24.65;;;19.35;;
59854;SDS011;45732;52.850;6.896;2023-04-06T12:10:05;24.10;;;19.77;;
59854;SDS011;45732;52.850;6.896;2023-04-06T12:12:31;24.33;;;20.38;;
59854;SDS011;45732;52.850;6.896;2023-04-06T12:14:56;25.02;;;20.27;;
59854;SDS011;45732;52.850;6.896;2023-04-06T12:17:23;28.58;;;22.00;;
59854;SDS011;45732;52.850;6.896;2023-04-06T12:19:49;27.58;;;21.35;;
59854;SDS011;45732;52.850;6.896;2023-04-06T12:22:18;26.17;;;21.33;;
59854;SDS011;45732;52.850;6.896;2023-04-06T12:24:43;26.52;;;21.27;;
59854;SDS011;45732;52.850;6.896;2023-04-06T12:27:09;28.73;;;21.08;;
59854;SDS011;45732;52.850;6.896;2023-04-06T12:29:37;28.27;;;21.50;;
59854;SDS011;45732;52.850;6.896;2023-04-06T12:32:03;30.17;;;22.92;;
59854;SDS011;45732;52.850;6.896;2023-04-06T12:34:29;29.85;;;22.45;;
59854;SDS011;45732;52.850;6.896;2023-04-06T12:36:55;27.00;;;21.67;;
59854;SDS011;45732;52.850;6.896;2023-04-06T12:39:21;30.52;;;23.42;;
59854;SDS011;45732;52.850;6.896;2023-04-06T12:41:47;26.77;;;21.20;;
59854;SDS011;45732;52.850;6.896;2023-04-06T12:44:13;32.00;;;22.65;;
59854;SDS011;45732;52.850;6.896;2023-04-06T12:46:39;27.98;;;22.08;;
59854;SDS011;45732;52.850;6.896;2023-04-06T12:49:04;27.73;;;22.10;;
59854;SDS011;45732;52.850;6.896;2023-04-06T12:51:31;30.42;;;22.08;;
59854;SDS011;45732;52.850;6.896;2023-04-06T12:53:56;26.20;;;21.55;;
59854;SDS011;45732;52.850;6.896;2023-04-06T12:56:22;30.25;;;22.00;;
59854;SDS011;45732;52.850;6.896;2023-04-06T12:58:50;28.90;;;21.95;;
59854;SDS011;45732;52.850;6.896;2023-04-06T13:01:16;26.38;;;20.98;;
59854;SDS011;45732;52.850;6.896;2023-04-06T13:03:43;26.23;;;20.63;;
59854;SDS011;45732;52.850;6.896;2023-04-06T13:06:08;30.00;;;22.23;;
59854;SDS011;45732;52.850;6.896;2023-04-06T13:08:35;29.30;;;21.65;;
59854;SDS011;45732;52.850;6.896;2023-04-06T13:11:05;27.50;;;21.05;;
59854;SDS011;45732;52.850;6.896;2023-04-06T13:13:33;26.30;;;21.33;;
59854;SDS011;45732;52.850;6.896;2023-04-06T13:16:02;29.13;;;22.90;;
59854;SDS011;45732;52.850;6.896;2023-04-06T13:18:29;30.23;;;21.75;;
59854;SDS011;45732;52.850;6.896;2023-04-06T13:20:57;28.02;;;21.58;;
59854;SDS011;45732;52.850;6.896;2023-04-06T13:23:24;28.42;;;21.52;;
59854;SDS011;45732;52.850;6.896;2023-04-06T13:26:24;26.50;;;20.88;;
59854;SDS011;45732;52.850;6.896;2023-04-06T13:28:42;26.35;;;21.77;;
59854;SDS011;45732;52.850;6.896;2023-04-06T13:31:08;26.13;;;20.75;;
59854;SDS011;45732;52.850;6.896;2023-04-06T13:33:34;32.00;;;22.75;;
59854;SDS011;45732;52.850;6.896;2023-04-06T13:36:00;28.85;;;22.70;;
59854;SDS011;45732;52.850;6.896;2023-04-06T13:38:26;28.67;;;22.27;;
59854;SDS011;45732;52.850;6.896;2023-04-06T13:40:53;27.48;;;21.38;;
59854;SDS011;45732;52.850;6.896;2023-04-06T13:43:19;24.75;;;20.38;;
59854;SDS011;45732;52.850;6.896;2023-04-06T13:45:49;27.88;;;21.98;;
59854;SDS011;45732;52.850;6.896;2023-04-06T13:48:16;27.90;;;21.48;;
59854;SDS011;45732;52.850;6.896;2023-04-06T13:50:42;32.88;;;22.00;;
59854;SDS011;45732;52.850;6.896;2023-04-06T13:53:08;26.27;;;21.20;;
59854;SDS011;45732;52.850;6.896;2023-04-06T13:55:33;25.65;;;21.55;;
59854;SDS011;45732;52.850;6.896;2023-04-06T13:57:59;28.73;;;21.30;;
59854;SDS011;45732;52.850;6.896;2023-04-06T14:00:25;30.23;;;22.05;;
59854;SDS011;45732;52.850;6.896;2023-04-06T14:02:50;28.35;;;22.30;;
59854;SDS011;45732;52.850;6.896;2023-04-06T14:05:18;26.95;;;21.05;;
59854;SDS011;45732;52.850;6.896;2023-04-06T14:07:43;24.15;;;18.65;;
59854;SDS011;45732;52.850;6.896;2023-04-06T14:10:09;26.17;;;18.50;;
59854;SDS011;45732;52.850;6.896;2023-04-06T14:12:40;23.95;;;19.42;;
59854;SDS011;45732;52.850;6.896;2023-04-06T14:15:06;23.60;;;18.98;;
59854;SDS011;45732;52.850;6.896;2023-04-06T14:17:33;24.90;;;18.88;;
59854;SDS011;45732;52.850;6.896;2023-04-06T14:19:59;24.45;;;18.88;;
59854;SDS011;45732;52.850;6.896;2023-04-06T14:22:25;25.63;;;20.27;;
59854;SDS011;45732;52.850;6.896;2023-04-06T14:24:51;25.67;;;19.00;;
59854;SDS011;45732;52.850;6.896;2023-04-06T14:27:16;26.08;;;18.92;;
59854;SDS011;45732;52.850;6.896;2023-04-06T14:29:42;25.50;;;19.38;;
59854;SDS011;45732;52.850;6.896;2023-04-06T14:32:08;24.55;;;19.83;;